createdAt,value
2023-09-08T00:01:00.010Z,129.1
2023-09-08T00:02:00.019Z,128.5
2023-09-08T00:03:00.050Z,128.2
2023-09-08T00:04:00.103Z,128.9
2023-09-08T00:05:00.074Z,129.8
2023-09-08T00:05:59.109Z,129.8
2023-09-08T00:06:59.157Z,129.8
2023-09-08T00:07:59.148Z,129.6
2023-09-08T00:08:59.200Z,128.6
2023-09-08T00:09:59.213Z,128.6
2023-09-08T00:10:59.240Z,128.7
2023-09-08T00:11:59.268Z,128.3
2023-09-08T00:12:59.279Z,129.1
2023-09-08T00:13:59.298Z,129
2023-09-08T00:14:59.316Z,128.7
2023-09-08T00:15:59.341Z,128.5
2023-09-08T00:16:59.418Z,128.5
2023-09-08T00:17:59.383Z,128.4
2023-09-08T00:18:59.383Z,128.3
2023-09-08T00:19:59.410Z,129
2023-09-08T00:20:59.447Z,128.8
2023-09-08T00:21:59.426Z,127.8
2023-09-08T00:22:59.471Z,128.2
2023-09-08T00:23:59.436Z,128.1
2023-09-08T00:24:59.447Z,128.6
2023-09-08T00:25:59.522Z,128.4
2023-09-08T00:26:59.529Z,128.8
2023-09-08T00:27:59.507Z,128.3
2023-09-08T00:28:59.561Z,128.4
2023-09-08T00:29:59.561Z,128.3
2023-09-08T00:30:59.584Z,128.1
2023-09-08T00:31:59.731Z,127.7
2023-09-08T00:32:59.759Z,128.1
2023-09-08T00:33:59.817Z,127.6
2023-09-08T00:34:59.709Z,127.5
2023-09-08T00:35:59.712Z,127.7
2023-09-08T00:36:59.729Z,127.2
2023-09-08T00:37:59.772Z,125.7
2023-09-08T00:38:59.774Z,125.9
2023-09-08T00:39:59.801Z,126.3
2023-09-08T00:40:59.829Z,126.6
2023-09-08T00:41:59.822Z,126.6
2023-09-08T00:42:59.844Z,126.5
2023-09-08T00:43:59.870Z,126.2
2023-09-08T00:44:59.876Z,126.1
2023-09-08T00:46:00.327Z,126.7
2023-09-08T00:46:59.880Z,126.3
2023-09-08T00:47:59.960Z,126.4
2023-09-08T00:48:59.900Z,125.8
2023-09-08T00:49:59.949Z,126
2023-09-08T00:50:59.966Z,127.1
2023-09-08T00:52:00.005Z,126.5
2023-09-08T00:53:00.022Z,126.2
2023-09-08T00:54:00.120Z,126.2
2023-09-08T00:55:00.106Z,125.8
2023-09-08T00:55:59.104Z,126
2023-09-08T00:56:59.130Z,126
2023-09-08T00:57:59.160Z,126.1
2023-09-08T00:58:59.177Z,126.3
2023-09-08T00:59:59.201Z,126.1
2023-09-08T01:00:59.246Z,126.5
2023-09-08T01:01:59.227Z,126.8
2023-09-08T01:02:59.380Z,127.2
2023-09-08T01:03:59.387Z,126.7
2023-09-08T01:04:59.281Z,127.2
2023-09-08T01:05:59.400Z,126.7
2023-09-08T01:06:59.302Z,127.8
2023-09-08T01:07:59.313Z,127.4
2023-09-08T01:08:59.405Z,126.7
2023-09-08T01:09:59.397Z,127.2
2023-09-08T01:10:59.342Z,127.1
2023-09-08T01:11:59.407Z,126.9
2023-09-08T01:12:59.399Z,126.8
2023-09-08T01:13:59.412Z,126.5
2023-09-08T01:14:59.453Z,127.2
2023-09-08T01:15:59.529Z,126.9
2023-09-08T01:16:59.559Z,126.5
2023-09-08T01:17:59.577Z,127.2
2023-09-08T01:18:59.628Z,127.5
2023-09-08T01:19:59.559Z,127.3
2023-09-08T01:20:59.569Z,127.2
2023-09-08T01:21:59.597Z,127
2023-09-08T01:22:59.607Z,127.2
2023-09-08T01:23:59.646Z,127.5
2023-09-08T01:24:59.653Z,127.5
2023-09-08T01:25:59.665Z,127.8
2023-09-08T01:26:59.679Z,127.9
2023-09-08T01:27:59.726Z,128.2
2023-09-08T01:28:59.697Z,127.7
2023-09-08T01:29:59.712Z,127.9
2023-09-08T01:30:59.835Z,128
2023-09-08T01:31:59.781Z,127.8
2023-09-08T01:32:59.794Z,127.6
2023-09-08T01:33:59.781Z,128
2023-09-08T01:34:59.808Z,128.3
2023-09-08T01:35:59.822Z,128.7
2023-09-08T01:36:59.848Z,127.9
2023-09-08T01:37:59.874Z,127.8
2023-09-08T01:38:59.976Z,127.8
2023-09-08T01:39:59.929Z,128
2023-09-08T01:40:59.941Z,127.8
2023-09-08T01:41:59.976Z,127.2
2023-09-08T01:43:00.027Z,126.9
2023-09-08T01:44:00.023Z,126.6
2023-09-08T01:45:00.045Z,125.7
2023-09-08T01:46:00.090Z,125.1
2023-09-08T01:47:00.076Z,124.9
2023-09-08T01:48:00.171Z,124.7
2023-09-08T01:48:59.172Z,124.4
2023-09-08T01:49:59.135Z,124.3
2023-09-08T01:50:59.123Z,123.7
2023-09-08T01:51:59.177Z,123.4
2023-09-08T01:52:59.134Z,123.8
2023-09-08T01:53:59.157Z,123.8
2023-09-08T01:54:59.208Z,124.6
2023-09-08T01:55:59.205Z,124.5
2023-09-08T01:56:59.233Z,124.5
2023-09-08T01:57:59.308Z,123.5
2023-09-08T01:58:59.287Z,123.6
2023-09-08T01:59:59.315Z,123.4
2023-09-08T02:00:59.368Z,123.4
2023-09-08T02:01:59.398Z,123.9
2023-09-08T02:02:59.432Z,122.8
2023-09-08T02:03:59.396Z,123.2
2023-09-08T02:04:59.532Z,123.2
2023-09-08T02:05:59.444Z,123.3
2023-09-08T02:06:59.473Z,122.5
2023-09-08T02:07:59.535Z,122.7
2023-09-08T02:08:59.484Z,122
2023-09-08T02:09:59.486Z,122.2
2023-09-08T02:10:59.497Z,121.9
2023-09-08T02:11:59.532Z,122.5
2023-09-08T02:12:59.515Z,121.6
2023-09-08T02:13:59.537Z,121.4
2023-09-08T02:14:59.656Z,121.9
2023-09-08T02:15:59.628Z,122.1
2023-09-08T02:16:59.595Z,122.2
2023-09-08T02:17:59.685Z,122.6
2023-09-08T02:18:59.699Z,122.7
2023-09-08T02:19:59.691Z,123.4
2023-09-08T02:20:59.743Z,123.8
2023-09-08T02:21:59.763Z,123.8
2023-09-08T02:22:59.778Z,123.2
2023-09-08T02:23:59.846Z,123.4
2023-09-08T02:24:59.825Z,123
2023-09-08T02:25:59.846Z,123.7
2023-09-08T02:26:59.872Z,123.6
2023-09-08T02:27:59.930Z,122.7
2023-09-08T02:28:59.936Z,122.6
2023-09-08T02:29:59.962Z,122.4
2023-09-08T02:30:59.968Z,122.1
2023-09-08T02:32:00.003Z,121.6
2023-09-08T02:33:00.040Z,121.9
2023-09-08T02:34:00.047Z,121.7
2023-09-08T02:35:00.082Z,121.8
2023-09-08T02:36:00.055Z,121.2
2023-09-08T02:37:00.084Z,121
2023-09-08T02:37:59.094Z,120.7
2023-09-08T02:38:59.103Z,121
2023-09-08T02:39:59.127Z,121.3
2023-09-08T02:40:59.129Z,120.9
2023-09-08T02:41:59.134Z,121.4
2023-09-08T02:42:59.164Z,121.8
2023-09-08T02:43:59.152Z,122
2023-09-08T02:44:59.190Z,122.7
2023-09-08T02:45:59.291Z,122.7
2023-09-08T02:46:59.246Z,123.2
2023-09-08T02:47:59.311Z,123.4
2023-09-08T02:48:59.349Z,124.1
2023-09-08T02:49:59.337Z,123.8
2023-09-08T02:50:59.379Z,123.9
2023-09-08T02:51:59.397Z,125
2023-09-08T02:52:59.413Z,124.8
2023-09-08T02:53:59.432Z,125.5
2023-09-08T02:54:59.465Z,125.6
2023-09-08T02:55:59.485Z,125.5
2023-09-08T02:56:59.500Z,125.5
2023-09-08T02:57:59.523Z,125.2
2023-09-08T02:58:59.539Z,125.5
2023-09-08T02:59:59.564Z,125.6
2023-09-08T03:00:59.578Z,125.7
2023-09-08T03:01:59.754Z,125.5
2023-09-08T03:02:59.677Z,125.9
2023-09-08T03:03:59.735Z,125.9
2023-09-08T03:04:59.668Z,125.9
2023-09-08T03:05:59.652Z,125.5
2023-09-08T03:06:59.666Z,125.6
2023-09-08T03:07:59.711Z,125.8
2023-09-08T03:08:59.669Z,126.2
2023-09-08T03:09:59.692Z,126.7
2023-09-08T03:10:59.726Z,126.6
2023-09-08T03:11:59.763Z,126.8
2023-09-08T03:12:59.790Z,126.8
2023-09-08T03:13:59.850Z,126.9
2023-09-08T03:14:59.830Z,127.4
2023-09-08T03:15:59.896Z,127.7
2023-09-08T03:16:59.914Z,127.7
2023-09-08T03:18:00.002Z,127.7
2023-09-08T03:18:59.929Z,127.5
2023-09-08T03:19:59.999Z,127.5
2023-09-08T03:20:59.982Z,128.4
2023-09-08T03:21:59.998Z,128.3
2023-09-08T03:23:00.009Z,128.7
2023-09-08T03:24:00.028Z,128.8
2023-09-08T03:25:00.036Z,129.3
2023-09-08T03:26:00.047Z,129.1
2023-09-08T03:27:00.080Z,129.5
2023-09-08T03:28:00.078Z,129.5
2023-09-08T03:29:00.085Z,129.7
2023-09-08T03:30:00.127Z,130.6
2023-09-08T03:30:59.126Z,130.8
2023-09-08T03:31:59.349Z,130.7
2023-09-08T03:32:59.271Z,131.3
2023-09-08T03:33:59.308Z,131.6
2023-09-08T03:34:59.206Z,131.9
2023-09-08T03:35:59.230Z,132.3
2023-09-08T03:36:59.264Z,132
2023-09-08T03:37:59.304Z,132
2023-09-08T03:38:59.321Z,132.3
2023-09-08T03:39:59.380Z,132.3
2023-09-08T03:40:59.378Z,132.6
2023-09-08T03:41:59.384Z,134
2023-09-08T03:42:59.462Z,133.8
2023-09-08T03:43:59.425Z,133.9
2023-09-08T03:44:59.432Z,134
2023-09-08T03:45:59.569Z,133.8
2023-09-08T03:47:01.701Z,134.2
2023-09-08T03:47:59.493Z,135.2
2023-09-08T03:48:59.499Z,135.8
2023-09-08T03:49:59.534Z,135.4
2023-09-08T03:50:59.528Z,135.5
2023-09-08T03:51:59.539Z,135
2023-09-08T03:52:59.545Z,134.9
2023-09-08T03:53:59.554Z,134.6
2023-09-08T03:54:59.567Z,135.5
2023-09-08T03:55:59.641Z,135.9
2023-09-08T03:56:59.686Z,136.1
2023-09-08T03:57:59.653Z,136.1
2023-09-08T03:58:59.688Z,136.1
2023-09-08T03:59:59.712Z,136.5
2023-09-08T04:00:59.793Z,136.4
2023-09-08T04:01:59.806Z,136.5
2023-09-08T04:02:59.862Z,136.9
2023-09-08T04:03:59.873Z,136.6
2023-09-08T04:04:59.819Z,137
2023-09-08T04:05:59.839Z,137.4
2023-09-08T04:06:59.875Z,137.2
2023-09-08T04:07:59.876Z,137
2023-09-08T04:08:59.951Z,137.4
2023-09-08T04:09:59.924Z,138
2023-09-08T04:10:59.923Z,138
2023-09-08T04:12:00.031Z,137.8
2023-09-08T04:12:59.960Z,137.6
2023-09-08T04:13:59.955Z,137.9
2023-09-08T04:15:00.013Z,138.1
2023-09-08T04:15:59.970Z,138
2023-09-08T04:16:59.993Z,138
2023-09-08T04:18:00.069Z,137.8
2023-09-08T04:19:00.088Z,137.2
2023-09-08T04:20:00.093Z,138.2
2023-09-08T04:20:59.148Z,137.6
2023-09-08T04:21:59.134Z,137.9
2023-09-08T04:22:59.148Z,137.4
2023-09-08T04:23:59.246Z,138.5
2023-09-08T04:24:59.192Z,137.8
2023-09-08T04:25:59.218Z,137.6
2023-09-08T04:26:59.251Z,138.3
2023-09-08T04:27:59.265Z,137.4
2023-09-08T04:28:59.289Z,137
2023-09-08T04:29:59.426Z,136.8
2023-09-08T04:30:59.358Z,137
2023-09-08T04:31:59.339Z,137
2023-09-08T04:32:59.426Z,136.8
2023-09-08T04:33:59.404Z,136.7
2023-09-08T04:34:59.378Z,136.5
2023-09-08T04:35:59.405Z,136.2
2023-09-08T04:36:59.475Z,136.5
2023-09-08T04:37:59.707Z,136.6
2023-09-08T04:38:59.410Z,135.6
2023-09-08T04:39:59.434Z,135.8
2023-09-08T04:40:59.458Z,136
2023-09-08T04:41:59.483Z,136
2023-09-08T04:42:59.515Z,136
2023-09-08T04:43:59.613Z,136
2023-09-08T04:44:59.569Z,136.7
2023-09-08T04:45:59.599Z,136.7
2023-09-08T04:46:59.644Z,136.7
2023-09-08T04:47:59.693Z,136.7
2023-09-08T04:48:59.680Z,136.7
2023-09-08T04:49:59.756Z,136.5
2023-09-08T04:50:59.749Z,136
2023-09-08T04:51:59.759Z,136.4
2023-09-08T04:52:59.793Z,136.4
2023-09-08T04:53:59.810Z,135.6
2023-09-08T04:54:59.816Z,135.6
2023-09-08T04:55:59.843Z,136
2023-09-08T04:57:11.744Z,136
2023-09-08T04:57:59.937Z,137.7
2023-09-08T04:58:59.901Z,136.6
2023-09-08T04:59:59.966Z,137.3
2023-09-08T05:00:59.991Z,137.2
2023-09-08T05:01:59.927Z,137.3
2023-09-08T05:03:00.054Z,137.3
2023-09-08T05:04:00.035Z,137.3
2023-09-08T05:04:59.953Z,137.3
2023-09-08T05:06:00.056Z,136.9
2023-09-08T05:06:59.981Z,137.6
2023-09-08T05:08:00.014Z,137.2
2023-09-08T05:09:00.084Z,137.3
2023-09-08T05:10:00.084Z,137.9
2023-09-08T05:10:59.093Z,138.3
2023-09-08T05:11:59.122Z,138.2
2023-09-08T05:12:59.146Z,138.5
2023-09-08T05:13:59.181Z,137.9
2023-09-08T05:14:59.203Z,138.6
2023-09-08T05:15:59.222Z,139.1
2023-09-08T05:16:59.245Z,139.4
2023-09-08T05:17:59.323Z,139.1
2023-09-08T05:18:59.379Z,139.5
2023-09-08T05:19:59.305Z,139.1
2023-09-08T05:20:59.325Z,139.2
2023-09-08T05:21:59.344Z,139.7
2023-09-08T05:22:59.360Z,139.7
2023-09-08T05:23:59.384Z,139.5
2023-09-08T05:24:59.601Z,140.1
2023-09-08T05:25:59.401Z,140.3
2023-09-08T05:26:59.422Z,141
2023-09-08T05:27:59.413Z,141.5
2023-09-08T05:28:59.418Z,141.5
2023-09-08T05:29:59.427Z,141.4
2023-09-08T05:30:59.464Z,141.1
2023-09-08T05:31:59.474Z,141.2
2023-09-08T05:32:59.593Z,141.7
2023-09-08T05:33:59.540Z,141.7
2023-09-08T05:34:59.557Z,142.2
2023-09-08T05:35:59.578Z,142.4
2023-09-08T05:36:59.687Z,142.4
2023-09-08T05:37:59.640Z,142.2
2023-09-08T05:38:59.661Z,141.4
2023-09-08T05:39:59.739Z,143
2023-09-08T05:40:59.706Z,143.6
2023-09-08T05:41:59.727Z,144.1
2023-09-08T05:42:59.767Z,143.7
2023-09-08T05:43:59.769Z,143.7
2023-09-08T05:44:59.790Z,144.1
2023-09-08T05:45:59.890Z,144.2
2023-09-08T05:46:59.967Z,144.9
2023-09-08T05:47:59.954Z,144.6
2023-09-08T05:48:59.894Z,144.1
2023-09-08T05:49:59.860Z,144.1
2023-09-08T05:50:59.879Z,144.4
2023-09-08T05:51:59.952Z,143.7
2023-09-08T05:52:59.886Z,144.8
2023-09-08T05:54:00.000Z,144.5
2023-09-08T05:55:02.606Z,145.7
2023-09-08T05:55:59.958Z,145.7
2023-09-08T05:56:59.973Z,145.6
2023-09-08T05:58:00.002Z,145
2023-09-08T05:59:00.043Z,146
2023-09-08T06:00:00.134Z,146.2
2023-09-08T06:01:00.079Z,146.2
2023-09-08T06:01:59.166Z,146.4
2023-09-08T06:02:59.265Z,146
2023-09-08T06:03:59.396Z,146.6
2023-09-08T06:04:59.173Z,146.4
2023-09-08T06:05:59.239Z,147
2023-09-08T06:06:59.314Z,147.4
2023-09-08T06:08:07.203Z,147.4
2023-09-08T06:08:59.290Z,147.3
2023-09-08T06:09:59.285Z,147.8
2023-09-08T06:10:59.361Z,148
2023-09-08T06:11:59.306Z,148.7
2023-09-08T06:12:59.322Z,148.9
2023-09-08T06:13:59.343Z,149
2023-09-08T06:14:59.348Z,149
2023-09-08T06:15:59.348Z,149.2
2023-09-08T06:16:59.397Z,149.4
2023-09-08T06:17:59.402Z,148.9
2023-09-08T06:18:59.373Z,149.2
2023-09-08T06:19:59.392Z,149
2023-09-08T06:20:59.478Z,149.5
2023-09-08T06:21:59.441Z,148.3
2023-09-08T06:22:59.487Z,149.6
2023-09-08T06:23:59.571Z,149.6
2023-09-08T06:24:59.525Z,149.1
2023-09-08T06:25:59.550Z,149.9
2023-09-08T06:26:59.621Z,149.9
2023-09-08T06:27:59.594Z,150.3
2023-09-08T06:28:59.614Z,150.4
2023-09-08T06:29:59.642Z,150.5
2023-09-08T06:30:59.725Z,150.1
2023-09-08T06:31:59.692Z,150.1
2023-09-08T06:32:59.835Z,150.5
2023-09-08T06:33:59.898Z,151.3
2023-09-08T06:34:59.753Z,151.1
2023-09-08T06:35:59.752Z,151.5
2023-09-08T06:36:59.775Z,151
2023-09-08T06:37:59.777Z,152.2
2023-09-08T06:38:59.787Z,151.7
2023-09-08T06:39:59.797Z,152
2023-09-08T06:40:59.807Z,151.2
2023-09-08T06:41:59.821Z,151.1
2023-09-08T06:43:01.339Z,151.5
2023-09-08T06:43:59.861Z,152.1
2023-09-08T06:44:59.878Z,151.5
2023-09-08T06:45:59.994Z,151.6
2023-09-08T06:46:59.954Z,152.1
2023-09-08T06:48:00.078Z,151.7
2023-09-08T06:49:00.814Z,153
2023-09-08T06:50:00.023Z,153.4
2023-09-08T06:51:00.163Z,153.6
2023-09-08T06:52:00.077Z,153.4
2023-09-08T06:52:59.102Z,151.8
2023-09-08T06:53:59.159Z,152.5
2023-09-08T06:54:59.148Z,152.7
2023-09-08T06:55:59.179Z,153.6
2023-09-08T06:56:59.196Z,153.7
2023-09-08T06:57:59.247Z,153.9
2023-09-08T06:58:59.247Z,153.8
2023-09-08T06:59:59.271Z,153.3
2023-09-08T07:00:59.353Z,153.5
2023-09-08T07:01:59.478Z,153.9
2023-09-08T07:02:59.365Z,153.9
2023-09-08T07:03:59.507Z,154.2
2023-09-08T07:04:59.517Z,153.9
2023-09-08T07:05:59.352Z,153.3
2023-09-08T07:06:59.370Z,153.6
2023-09-08T07:07:59.352Z,153.2
2023-09-08T07:08:59.385Z,153.3
2023-09-08T07:09:59.406Z,154.2
2023-09-08T07:10:59.478Z,153.9
2023-09-08T07:11:59.456Z,154.5
2023-09-08T07:12:59.484Z,154.5
2023-09-08T07:13:59.509Z,155
2023-09-08T07:14:59.533Z,155.3
2023-09-08T07:15:59.575Z,155.2
2023-09-08T07:16:59.766Z,155.6
2023-09-08T07:17:59.657Z,155.2
2023-09-08T07:18:59.628Z,155.4
2023-09-08T07:19:59.662Z,154.9
2023-09-08T07:20:59.679Z,155.4
2023-09-08T07:21:59.700Z,155.3
2023-09-08T07:22:59.848Z,155.1
2023-09-08T07:23:59.732Z,156.1
2023-09-08T07:24:59.741Z,156.4
2023-09-08T07:25:59.771Z,156.4
2023-09-08T07:26:59.784Z,156.8
2023-09-08T07:27:59.802Z,158.1
2023-09-08T07:28:59.839Z,158.7
2023-09-08T07:29:59.901Z,155.7
2023-09-08T07:30:59.934Z,155.7
2023-09-08T07:31:59.911Z,155.7
2023-09-08T07:32:59.887Z,156.1
2023-09-08T07:33:59.869Z,155.9
2023-09-08T07:34:59.930Z,156.8
2023-09-08T07:35:59.921Z,157.2
2023-09-08T07:36:59.938Z,157.9
2023-09-08T07:37:59.954Z,157.6
2023-09-08T07:38:59.987Z,158.9
2023-09-08T07:40:00.006Z,158.4
2023-09-08T07:41:00.032Z,158
2023-09-08T07:42:01.916Z,158.9
2023-09-08T07:43:00.085Z,159.4
2023-09-08T07:43:59.238Z,161.1
2023-09-08T07:44:59.116Z,159.7
2023-09-08T07:45:59.215Z,160.7
2023-09-08T07:46:59.149Z,160.9
2023-09-08T07:47:59.335Z,161.6
2023-09-08T07:48:59.177Z,161
2023-09-08T07:49:59.193Z,161.8
2023-09-08T07:50:59.192Z,161.6
2023-09-08T07:51:59.204Z,160.8
2023-09-08T07:52:59.209Z,160
2023-09-08T07:53:59.337Z,160.3
2023-09-08T07:54:59.225Z,159.8
2023-09-08T07:55:59.278Z,161.1
2023-09-08T07:56:59.278Z,161.5
2023-09-08T07:57:59.295Z,161.5
2023-09-08T07:58:59.358Z,161.4
2023-09-08T07:59:59.345Z,162.3
2023-09-08T08:00:59.402Z,163.1
2023-09-08T08:01:59.422Z,163.7
2023-09-08T08:02:59.435Z,163.2
2023-09-08T08:03:59.509Z,162.3
2023-09-08T08:04:59.448Z,162.7
2023-09-08T08:05:59.571Z,162.4
2023-09-08T08:06:59.499Z,164.1
2023-09-08T08:07:59.500Z,163.2
2023-09-08T08:09:01.579Z,164.1
2023-09-08T08:09:59.527Z,163.8
2023-09-08T08:10:59.529Z,163
2023-09-08T08:11:59.564Z,163.7
2023-09-08T08:12:59.555Z,164.1
2023-09-08T08:13:59.555Z,165
2023-09-08T08:14:59.608Z,165.8
2023-09-08T08:15:59.697Z,165.4
2023-09-08T08:16:59.652Z,165.5
2023-09-08T08:17:59.721Z,165
2023-09-08T08:18:59.729Z,165.4
2023-09-08T08:19:59.727Z,166.4
2023-09-08T08:20:59.746Z,166.1
2023-09-08T08:21:59.773Z,165.7
2023-09-08T08:22:59.800Z,164.9
2023-09-08T08:23:59.827Z,164.6
2023-09-08T08:24:59.852Z,164.5
2023-09-08T08:25:59.881Z,165.3
2023-09-08T08:26:59.899Z,165.8
2023-09-08T08:27:59.927Z,166.5
2023-09-08T08:28:59.952Z,166.2
2023-09-08T08:29:59.964Z,166.1
2023-09-08T08:31:00.052Z,166
2023-09-08T08:32:00.030Z,165.4
2023-09-08T08:33:00.059Z,166.5
2023-09-08T08:34:00.097Z,166.7
2023-09-08T08:35:00.062Z,167.5
2023-09-08T08:36:00.075Z,166.9
2023-09-08T08:37:00.092Z,166.8
2023-09-08T08:37:59.103Z,167.2
2023-09-08T08:38:59.117Z,167
2023-09-08T08:39:59.115Z,167.2
2023-09-08T08:40:59.128Z,168.4
2023-09-08T08:41:59.164Z,168.7
2023-09-08T08:43:01.529Z,167.4
2023-09-08T08:43:59.173Z,166.5
2023-09-08T08:44:59.204Z,166.3
2023-09-08T08:45:59.280Z,166.8
2023-09-08T08:46:59.275Z,166.9
2023-09-08T08:47:59.529Z,166.9
2023-09-08T08:48:59.308Z,167.4
2023-09-08T08:49:59.331Z,167
2023-09-08T08:50:59.415Z,167.1
2023-09-08T08:51:59.404Z,166.6
2023-09-08T08:52:59.409Z,168
2023-09-08T08:53:59.422Z,167.4
2023-09-08T08:54:59.454Z,167.3
2023-09-08T08:55:59.467Z,167.1
2023-09-08T08:56:59.509Z,167.6
2023-09-08T08:57:59.498Z,167
2023-09-08T08:58:59.525Z,167
2023-09-08T08:59:59.549Z,168.8
2023-09-08T09:00:59.612Z,169.7
2023-09-08T09:01:59.565Z,168.8
2023-09-08T09:03:12.055Z,169.3
2023-09-08T09:03:59.634Z,168.8
2023-09-08T09:04:59.588Z,169.5
2023-09-08T09:05:59.592Z,169.8
2023-09-08T09:06:59.622Z,170.2
2023-09-08T09:07:59.663Z,169
2023-09-08T09:08:59.685Z,168.7
2023-09-08T09:09:59.701Z,169
2023-09-08T09:10:59.825Z,169.5
2023-09-08T09:11:59.746Z,169.4
2023-09-08T09:12:59.786Z,169.2
2023-09-08T09:13:59.822Z,170.4
2023-09-08T09:14:59.875Z,169.7
2023-09-08T09:15:59.891Z,169.9
2023-09-08T09:16:59.881Z,170.5
2023-09-08T09:17:59.961Z,170.2
2023-09-08T09:18:59.937Z,170.6
2023-09-08T09:19:59.947Z,170.7
2023-09-08T09:20:59.976Z,171.3
2023-09-08T09:22:00.006Z,171.2
2023-09-08T09:23:00.033Z,170
2023-09-08T09:24:00.100Z,169.5
2023-09-08T09:25:00.150Z,169.8
2023-09-08T09:26:00.264Z,170.6
2023-09-08T09:27:00.061Z,171.5
2023-09-08T09:28:00.068Z,171
2023-09-08T09:29:00.065Z,171.1
2023-09-08T09:30:00.115Z,169.4
2023-09-08T09:30:59.094Z,169.7
2023-09-08T09:31:59.131Z,169.7
2023-09-08T09:32:59.231Z,170.3
2023-09-08T09:33:59.184Z,170.6
2023-09-08T09:34:59.195Z,172.6
2023-09-08T09:35:59.229Z,172.3
2023-09-08T09:36:59.240Z,170.3
2023-09-08T09:37:59.267Z,170.3
2023-09-08T09:38:59.285Z,170.5
2023-09-08T09:39:59.369Z,171.4
2023-09-08T09:40:59.357Z,171.7
2023-09-08T09:41:59.352Z,172.7
2023-09-08T09:42:59.415Z,172.8
2023-09-08T09:43:59.391Z,173
2023-09-08T09:44:59.406Z,173.3
2023-09-08T09:45:59.510Z,173.9
2023-09-08T09:46:59.442Z,174.7
2023-09-08T09:47:59.489Z,175.4
2023-09-08T09:48:59.477Z,174.9
2023-09-08T09:49:59.471Z,173.6
2023-09-08T09:50:59.496Z,173.3
2023-09-08T09:51:59.484Z,175
2023-09-08T09:52:59.495Z,174.6
2023-09-08T09:53:59.590Z,174.4
2023-09-08T09:54:59.571Z,176.2
2023-09-08T09:55:59.595Z,175.8
2023-09-08T09:56:59.599Z,177.4
2023-09-08T09:57:59.632Z,177.7
2023-09-08T09:58:59.736Z,177.3
2023-09-08T09:59:59.749Z,176.8
2023-09-08T10:00:59.819Z,175.2
2023-09-08T10:01:59.781Z,176.8
2023-09-08T10:02:59.847Z,177.6
2023-09-08T10:03:59.902Z,175.7
2023-09-08T10:04:59.799Z,174.2
2023-09-08T10:05:59.927Z,176.3
2023-09-08T10:06:59.959Z,176.6
2023-09-08T10:07:59.925Z,176.2
2023-09-08T10:08:59.880Z,177.2
2023-09-08T10:09:59.901Z,175.6
2023-09-08T10:10:59.907Z,173.9
2023-09-08T10:11:59.921Z,174.5
2023-09-08T10:12:59.941Z,174.5
2023-09-08T10:13:59.947Z,175.7
2023-09-08T10:15:00.008Z,173.9
2023-09-08T10:15:59.973Z,175.8
2023-09-08T10:17:00.022Z,174.8
2023-09-08T10:18:00.109Z,176.7
2023-09-08T10:19:00.149Z,175.9
2023-09-08T10:20:00.049Z,175.8
2023-09-08T10:21:00.074Z,174.7
2023-09-08T10:21:59.103Z,174.8
2023-09-08T10:22:59.133Z,174.2
2023-09-08T10:23:59.147Z,175.7
2023-09-08T10:24:59.169Z,173.2
2023-09-08T10:26:00.995Z,171.9
2023-09-08T10:26:59.229Z,171.6
2023-09-08T10:27:59.256Z,174.3
2023-09-08T10:28:59.275Z,175.1
2023-09-08T10:29:59.298Z,175.2
2023-09-08T10:30:59.330Z,174.1
2023-09-08T10:31:59.361Z,173.2
2023-09-08T10:32:59.401Z,176.3
2023-09-08T10:33:59.386Z,175.1
2023-09-08T10:34:59.477Z,175
2023-09-08T10:35:59.413Z,176.3
2023-09-08T10:36:59.442Z,175.6
2023-09-08T10:37:59.429Z,173
2023-09-08T10:38:59.437Z,173.1
2023-09-08T10:39:59.507Z,172.7
2023-09-08T10:40:59.447Z,171.2
2023-09-08T10:41:59.473Z,173.6
2023-09-08T10:42:59.561Z,173.2
2023-09-08T10:43:59.585Z,173.3
2023-09-08T10:44:59.550Z,171.9
2023-09-08T10:45:59.617Z,172.5
2023-09-08T10:46:59.659Z,171.6
2023-09-08T10:47:59.679Z,173.5
2023-09-08T10:48:59.695Z,175.2
2023-09-08T10:50:00.792Z,176.4
2023-09-08T10:50:59.698Z,176.2
2023-09-08T10:51:59.768Z,175.1
2023-09-08T10:52:59.724Z,177.8
2023-09-08T10:53:59.755Z,177.3
2023-09-08T10:54:59.790Z,176.8
2023-09-08T10:56:16.404Z,179.2
2023-09-08T10:56:59.789Z,177.2
2023-09-08T10:57:59.784Z,178.4
2023-09-08T10:58:59.811Z,176.4
2023-09-08T10:59:59.794Z,174.6
2023-09-08T11:00:59.798Z,174.5
2023-09-08T11:01:59.902Z,174.1
2023-09-08T11:03:00.006Z,173.4
2023-09-08T11:03:59.972Z,175.2
2023-09-08T11:04:59.904Z,175.6
2023-09-08T11:06:00.092Z,172.1
2023-09-08T11:06:59.968Z,171.9
2023-09-08T11:07:59.976Z,171.8
2023-09-08T11:09:00.004Z,172.2
2023-09-08T11:10:00.032Z,172.8
2023-09-08T11:11:00.048Z,172.7
2023-09-08T11:12:00.079Z,173
2023-09-08T11:13:00.088Z,174
2023-09-08T11:14:01.154Z,173.7
2023-09-08T11:14:59.128Z,173.3
2023-09-08T11:15:59.176Z,173.2
2023-09-08T11:16:59.151Z,174.9
2023-09-08T11:17:59.249Z,174.9
2023-09-08T11:18:59.174Z,173.6
2023-09-08T11:19:59.171Z,172.8
2023-09-08T11:20:59.258Z,172.2
2023-09-08T11:21:59.187Z,172.3
2023-09-08T11:22:59.215Z,174.4
2023-09-08T11:23:59.255Z,170
2023-09-08T11:24:59.280Z,172.9
2023-09-08T11:25:59.331Z,174
2023-09-08T11:26:59.336Z,171.3
2023-09-08T11:27:59.373Z,171.8
2023-09-08T11:28:59.386Z,171.9
2023-09-08T11:29:59.410Z,168.1
2023-09-08T11:30:59.475Z,168.1
2023-09-08T11:31:59.504Z,166.2
2023-09-08T11:32:59.497Z,168.2
2023-09-08T11:33:59.514Z,169.9
2023-09-08T11:34:59.522Z,166.9
2023-09-08T11:35:59.592Z,166
2023-09-08T11:36:59.590Z,168
2023-09-08T11:37:59.580Z,168.9
2023-09-08T11:38:59.602Z,166.1
2023-09-08T11:39:59.673Z,164.3
2023-09-08T11:40:59.666Z,165.2
2023-09-08T11:41:59.639Z,167.5
2023-09-08T11:42:59.671Z,166.3
2023-09-08T11:43:59.706Z,166.2
2023-09-08T11:44:59.657Z,166.7
2023-09-08T11:45:59.707Z,167.4
2023-09-08T11:46:59.777Z,167.3
2023-09-08T11:47:59.776Z,167.4
2023-09-08T11:48:59.814Z,166.9
2023-09-08T11:49:59.766Z,168.2
2023-09-08T11:50:59.795Z,168.6
2023-09-08T11:51:59.841Z,163.6
2023-09-08T11:52:59.842Z,164.5
2023-09-08T11:53:59.851Z,163.5
2023-09-08T11:55:07.113Z,166.2
2023-09-08T11:55:59.952Z,166.2
2023-09-08T11:56:59.911Z,165.3
2023-09-08T11:57:59.932Z,164.3
2023-09-08T11:59:00.035Z,164.4
2023-09-08T11:59:59.965Z,163.5
2023-09-08T12:01:00.034Z,162.9
2023-09-08T12:01:59.980Z,162.4
2023-09-08T12:03:00.028Z,162.2
2023-09-08T12:04:00.055Z,164
2023-09-08T12:05:00.014Z,162.8
2023-09-08T12:06:00.020Z,162.1
2023-09-08T12:07:00.057Z,164
2023-09-08T12:08:00.075Z,163.6
2023-09-08T12:09:00.085Z,164.3
2023-09-08T12:09:59.147Z,164
2023-09-08T12:10:59.125Z,163.1
2023-09-08T12:11:59.157Z,163.1
2023-09-08T12:12:59.209Z,163.7
2023-09-08T12:13:59.208Z,163.9
2023-09-08T12:14:59.237Z,164
2023-09-08T12:15:59.371Z,163.3
2023-09-08T12:16:59.316Z,162.1
2023-09-08T12:17:59.340Z,161
2023-09-08T12:18:59.334Z,163.5
2023-09-08T12:19:59.353Z,162.1
2023-09-08T12:20:59.374Z,162.3
2023-09-08T12:21:59.413Z,162.4
2023-09-08T12:22:59.403Z,160.5
2023-09-08T12:23:59.427Z,160.4
2023-09-08T12:24:59.440Z,162.2
2023-09-08T12:25:59.448Z,162.4
2023-09-08T12:26:59.494Z,162.6
2023-09-08T12:27:59.497Z,162.2
2023-09-08T12:28:59.476Z,159.8
2023-09-08T12:29:59.479Z,159.4
2023-09-08T12:30:59.553Z,159.8
2023-09-08T12:31:59.543Z,158.3
2023-09-08T12:32:59.581Z,157.5
2023-09-08T12:33:59.613Z,153.1
2023-09-08T12:34:59.593Z,152.1
2023-09-08T12:35:59.635Z,154.6
2023-09-08T12:36:59.722Z,155.9
2023-09-08T12:37:59.682Z,156.5
2023-09-08T12:38:59.708Z,156.5
2023-09-08T12:39:59.797Z,157
2023-09-08T12:40:59.772Z,156.6
2023-09-08T12:41:59.777Z,156.6
2023-09-08T12:43:04.051Z,157.3
2023-09-08T12:43:59.821Z,156.1
2023-09-08T12:44:59.900Z,156.6
2023-09-08T12:45:59.909Z,157.2
2023-09-08T12:46:59.943Z,157.1
2023-09-08T12:47:59.938Z,158
2023-09-08T12:48:59.921Z,157.8
2023-09-08T12:49:59.978Z,158.2
2023-09-08T12:50:59.929Z,158
2023-09-08T12:51:59.944Z,158.4
2023-09-08T12:52:59.944Z,158.3
2023-09-08T12:53:59.974Z,155.4
2023-09-08T12:54:59.972Z,155.9
2023-09-08T12:56:00.004Z,156.4
2023-09-08T12:57:00.016Z,159.1
2023-09-08T12:58:00.040Z,159.3
2023-09-08T12:59:00.061Z,156.2